Cullen, United Kingdom
Current Conditions -  °F | °C
As of 7:50 AM on Sunday 23 Nov 2014 (Local Time) from EGQS Reporting Station
Few Clouds Few Clouds  
Wind Chill: 32°   Ceiling: Unl
Heat Index: 37°   Visibility: 6mi
Dew Point: 34°   Wind: 7mph
Humidity: 87%   Direction: 230°SW
Pressure: 29.94"   Gusts: NA
Location:  57.69°N, 2.82°W
Report Text: EGQS 230750Z 23006KT 9999 FEW025 03/01 Q1014 BLU
Loading
Personal Weather Stations






























Interactive Weather Map New forecast layout! Learn more

10-Day Weather Forecast

Advertisements
Track Severe Weather on mobile